createdAt,value
2023-01-21T00:04:52.924Z,22.47
2023-01-21T00:07:21.048Z,23.73
2023-01-21T00:09:49.251Z,24.70
2023-01-21T00:12:17.380Z,25.20
2023-01-21T00:14:45.569Z,23.53
2023-01-21T00:17:13.791Z,26.83
2023-01-21T00:19:41.935Z,27.60
2023-01-21T00:22:11.378Z,28.57
2023-01-21T00:24:39.483Z,31.00
2023-01-21T00:27:07.576Z,29.57
2023-01-21T00:29:35.663Z,32.27
2023-01-21T00:32:03.730Z,32.53
2023-01-21T00:34:34.227Z,33.63
2023-01-21T00:37:02.353Z,31.60
2023-01-21T00:39:31.802Z,35.40
2023-01-21T00:41:59.850Z,29.73
2023-01-21T00:44:27.966Z,32.47
2023-01-21T00:54:39.753Z,31.47
2023-01-21T00:57:07.980Z,29.10
2023-01-21T00:59:36.228Z,27.67
2023-01-21T01:02:04.345Z,26.40
2023-01-21T01:04:32.376Z,26.70
2023-01-21T01:07:00.528Z,25.07
2023-01-21T01:09:28.804Z,25.17
2023-01-21T01:11:58.352Z,25.07
2023-01-21T01:14:26.747Z,25.07
2023-01-21T01:16:54.852Z,23.83
2023-01-21T01:19:22.978Z,23.30
2023-01-21T01:21:51.023Z,23.70
2023-01-21T01:24:19.072Z,23.10
2023-01-21T01:26:47.171Z,25.03
2023-01-21T01:36:58.158Z,23.07
2023-01-21T01:39:26.334Z,22.87
2023-01-21T01:41:55.136Z,22.30
2023-01-21T01:45:00.201Z,21.83
2023-01-21T01:47:32.700Z,20.27
2023-01-21T01:50:03.232Z,23.57
2023-01-21T01:52:32.902Z,21.57
2023-01-21T01:55:04.304Z,20.27
2023-01-21T01:57:36.822Z,21.13
2023-01-21T02:03:59.632Z,22.37
2023-01-21T02:06:28.295Z,21.03
2023-01-21T02:08:58.274Z,20.97
2023-01-21T02:11:26.412Z,20.90
2023-01-21T02:13:57.976Z,22.47
2023-01-21T02:16:46.246Z,21.67
2023-01-21T02:19:49.771Z,20.60
2023-01-21T02:22:23.514Z,22.87
2023-01-21T02:25:38.791Z,20.43
2023-01-21T02:28:27.594Z,23.23
2023-01-21T02:31:28.628Z,22.43
2023-01-21T02:34:07.811Z,21.00
2023-01-21T02:37:09.561Z,23.13
2023-01-21T02:39:53.090Z,21.43
2023-01-21T02:42:29.947Z,19.43
2023-01-21T02:45:05.679Z,19.90
2023-01-21T02:47:39.476Z,21.80
2023-01-21T02:50:16.555Z,18.63
2023-01-21T02:52:44.839Z,20.63
2023-01-21T02:55:16.382Z,19.93
2023-01-21T02:57:48.254Z,21.50
2023-01-21T03:05:55.232Z,19.97
2023-01-21T03:08:31.634Z,22.57
2023-01-21T03:11:16.952Z,20.30
2023-01-21T03:14:08.458Z,20.50
2023-01-21T03:17:00.800Z,19.70
2023-01-21T03:19:38.235Z,19.77
2023-01-21T03:22:09.817Z,18.67
2023-01-21T03:24:41.560Z,19.23
2023-01-21T03:27:10.834Z,21.67
2023-01-21T03:29:42.261Z,21.57
2023-01-21T03:32:14.723Z,18.87
2023-01-21T03:34:48.302Z,19.43
2023-01-21T03:37:22.586Z,21.43
2023-01-21T03:40:00.612Z,19.83
2023-01-21T03:42:28.909Z,19.77
2023-01-21T03:44:57.337Z,21.60
2023-01-21T03:47:31.401Z,21.00
2023-01-21T03:50:03.131Z,22.20
2023-01-21T03:52:31.731Z,21.50
2023-01-21T03:55:01.217Z,20.13
2023-01-21T03:57:29.317Z,20.80
2023-01-21T03:59:57.480Z,22.47
2023-01-21T04:02:25.593Z,23.23
2023-01-21T04:04:53.951Z,22.13
2023-01-21T04:07:22.039Z,19.80
2023-01-21T04:09:50.776Z,21.13
2023-01-21T04:12:20.231Z,21.57
2023-01-21T04:14:48.298Z,20.63
2023-01-21T04:17:16.366Z,20.57
2023-01-21T04:19:44.499Z,19.97
2023-01-21T04:22:12.543Z,22.20
2023-01-21T04:24:40.732Z,20.43
2023-01-21T04:27:08.846Z,20.10
2023-01-21T04:29:38.253Z,22.30
2023-01-21T04:32:06.642Z,23.70
2023-01-21T04:34:34.708Z,21.70
2023-01-21T04:37:02.780Z,23.53
2023-01-21T04:39:30.847Z,21.10
2023-01-21T04:41:58.932Z,24.63
2023-01-21T04:44:26.998Z,22.13
2023-01-21T04:46:56.445Z,21.83
2023-01-21T04:49:24.553Z,21.70
2023-01-21T04:51:52.610Z,20.70
2023-01-21T04:54:20.704Z,20.73
2023-01-21T04:56:48.768Z,23.60
2023-01-21T04:59:16.813Z,20.87
2023-01-21T05:01:44.897Z,21.60
2023-01-21T05:04:14.346Z,22.20
2023-01-21T05:06:42.428Z,20.93
2023-01-21T05:09:10.518Z,22.80
2023-01-21T05:11:38.580Z,23.40
2023-01-21T05:14:06.673Z,22.77
2023-01-21T05:16:34.749Z,22.67
2023-01-21T05:19:03.998Z,22.83
2023-01-21T05:21:33.460Z,23.77
2023-01-21T05:24:01.777Z,21.73
2023-01-21T05:26:29.858Z,22.43
2023-01-21T05:28:57.933Z,23.80
2023-01-21T05:31:26.211Z,21.73
2023-01-21T05:33:54.321Z,22.17
2023-01-21T05:36:22.355Z,21.70
2023-01-21T05:38:51.771Z,22.03
2023-01-21T05:41:20.029Z,23.93
2023-01-21T05:43:48.061Z,22.83
2023-01-21T05:46:16.195Z,24.57
2023-01-21T05:48:44.261Z,23.83
2023-01-21T05:51:12.564Z,20.97
2023-01-21T05:53:40.891Z,23.67
2023-01-21T05:56:10.459Z,21.87
2023-01-21T05:58:38.526Z,24.70
2023-01-21T06:01:06.777Z,22.67
2023-01-21T06:03:35.662Z,22.07
2023-01-21T06:06:03.763Z,23.57
2023-01-21T06:08:31.868Z,21.87
2023-01-21T06:10:59.935Z,22.43
2023-01-21T06:13:29.496Z,24.87
2023-01-21T06:16:11.372Z,22.73
2023-01-21T06:18:39.658Z,23.00
2023-01-21T06:21:07.726Z,25.73
2023-01-21T06:23:35.925Z,25.17
2023-01-21T06:26:04.383Z,26.13
2023-01-21T06:28:32.505Z,25.20
2023-01-21T06:31:00.690Z,25.37
2023-01-21T06:33:30.178Z,24.83
2023-01-21T06:35:58.218Z,24.87
2023-01-21T06:38:26.392Z,24.17
2023-01-21T06:40:54.441Z,22.73
2023-01-21T06:43:22.487Z,25.57
2023-01-21T06:45:50.526Z,25.17
2023-01-21T06:48:18.560Z,25.30
2023-01-21T06:50:48.052Z,26.27
2023-01-21T06:53:16.169Z,24.87
2023-01-21T06:55:44.240Z,26.70
2023-01-21T06:58:12.278Z,24.43
2023-01-21T07:00:40.333Z,26.63
2023-01-21T07:03:08.821Z,24.10
2023-01-21T07:05:36.927Z,29.90
2023-01-21T07:08:06.899Z,28.40
2023-01-21T07:10:34.915Z,25.90
2023-01-21T07:13:02.951Z,26.40
2023-01-21T07:15:31.795Z,29.30
2023-01-21T07:17:59.930Z,26.57
2023-01-21T07:20:28.148Z,27.13
2023-01-21T07:22:56.222Z,27.80
2023-01-21T07:25:25.697Z,26.80
2023-01-21T07:27:53.737Z,28.83
2023-01-21T07:30:22.528Z,27.27
2023-01-21T07:32:50.651Z,24.63
2023-01-21T07:35:19.119Z,28.67
2023-01-21T07:37:47.336Z,28.27
2023-01-21T07:40:15.561Z,29.63
2023-01-21T07:42:44.977Z,25.87
2023-01-21T07:45:13.233Z,27.17
2023-01-21T07:47:41.264Z,26.20
2023-01-21T07:50:10.422Z,25.23
2023-01-21T07:52:38.548Z,29.23
2023-01-21T07:55:08.112Z,24.60
2023-01-21T07:57:36.371Z,29.53
2023-01-21T08:00:07.937Z,26.90
2023-01-21T08:02:36.042Z,29.23
2023-01-21T08:05:04.134Z,28.30
2023-01-21T08:07:32.223Z,28.33
2023-01-21T08:10:00.345Z,30.37
2023-01-21T08:12:28.460Z,29.10
2023-01-21T08:14:56.627Z,27.40
2023-01-21T08:17:27.015Z,24.63
2023-01-21T08:19:55.086Z,27.03
2023-01-21T08:22:23.329Z,27.67
2023-01-21T08:24:51.356Z,28.80
2023-01-21T08:27:19.403Z,30.33
2023-01-21T08:29:48.597Z,27.57
2023-01-21T08:32:17.079Z,25.07
2023-01-21T08:34:46.528Z,27.33
2023-01-21T08:37:14.668Z,28.57
2023-01-21T08:39:42.794Z,29.03
2023-01-21T08:42:10.964Z,28.27
2023-01-21T08:44:38.990Z,29.77
2023-01-21T08:47:07.110Z,28.43
2023-01-21T08:49:35.260Z,26.47
2023-01-21T08:52:05.061Z,26.27
2023-01-21T08:54:33.134Z,28.67
2023-01-21T08:57:01.179Z,30.17
2023-01-21T08:59:30.189Z,29.83
2023-01-21T09:01:58.423Z,29.03
2023-01-21T09:04:26.616Z,27.93
2023-01-21T09:06:54.713Z,28.07
2023-01-21T09:09:24.124Z,26.10
2023-01-21T09:11:52.750Z,29.67
2023-01-21T09:14:21.627Z,27.27
2023-01-21T09:16:50.346Z,24.40
2023-01-21T09:19:18.484Z,27.20
2023-01-21T09:21:46.555Z,25.83
2023-01-21T09:24:14.574Z,27.73
2023-01-21T09:26:45.077Z,26.17
2023-01-21T09:29:13.324Z,23.87
2023-01-21T09:31:41.462Z,26.90
2023-01-21T09:34:10.851Z,23.97
2023-01-21T09:36:39.379Z,26.87
2023-01-21T09:39:08.013Z,24.27
2023-01-21T09:41:38.752Z,25.37
2023-01-21T09:44:20.321Z,22.80
2023-01-21T09:46:55.938Z,23.60
2023-01-21T09:49:27.350Z,22.80
2023-01-21T09:52:02.314Z,21.87
2023-01-21T09:54:32.884Z,22.23
2023-01-21T09:57:33.688Z,22.40
2023-01-21T10:00:18.351Z,22.33
2023-01-21T10:02:54.714Z,22.30
2023-01-21T10:05:44.764Z,22.07
2023-01-21T10:08:20.811Z,22.00
2023-01-21T10:10:53.375Z,21.60
2023-01-21T10:13:42.317Z,22.77
2023-01-21T10:16:20.223Z,21.43
2023-01-21T10:18:52.356Z,20.77
2023-01-21T10:21:30.717Z,20.87
2023-01-21T10:24:04.564Z,22.13
2023-01-21T10:26:35.229Z,22.67
2023-01-21T10:29:03.417Z,20.90
2023-01-21T10:31:40.401Z,19.87
2023-01-21T10:34:14.458Z,19.83
2023-01-21T10:36:58.382Z,21.30
2023-01-21T10:39:39.163Z,18.33
2023-01-21T10:42:32.217Z,19.53
2023-01-21T10:45:08.246Z,19.00
2023-01-21T10:47:46.482Z,18.23
2023-01-21T10:50:26.509Z,19.53
2023-01-21T10:52:58.374Z,18.73
2023-01-21T10:55:37.977Z,17.87
2023-01-21T10:58:16.678Z,19.30
2023-01-21T11:00:47.773Z,17.50
2023-01-21T11:03:22.545Z,17.37
2023-01-21T11:05:50.838Z,18.67
2023-01-21T11:08:23.250Z,17.57
2023-01-21T11:10:55.261Z,18.23
2023-01-21T11:13:23.974Z,18.40
2023-01-21T11:15:54.576Z,18.37
2023-01-21T11:18:29.869Z,17.70
2023-01-21T11:21:00.642Z,19.10
2023-01-21T11:23:31.071Z,19.97
2023-01-21T11:26:04.043Z,19.57
2023-01-21T11:28:32.260Z,19.53
2023-01-21T11:31:12.269Z,16.77
2023-01-21T11:33:43.430Z,16.97
2023-01-21T11:36:14.778Z,17.43
2023-01-21T11:38:43.736Z,17.67
2023-01-21T11:41:23.724Z,17.77
2023-01-21T11:43:53.481Z,16.53
2023-01-21T11:46:29.927Z,15.93
2023-01-21T11:49:23.957Z,18.13
2023-01-21T11:51:52.663Z,17.83
2023-01-21T11:54:22.451Z,17.47
2023-01-21T11:56:57.013Z,15.17
2023-01-21T11:59:28.990Z,17.40
2023-01-21T12:02:00.212Z,16.63
2023-01-21T12:04:29.681Z,15.67
2023-01-21T12:07:00.502Z,15.33
2023-01-21T12:09:30.146Z,15.93
2023-01-21T12:12:20.209Z,14.17
2023-01-21T12:14:53.191Z,13.90
2023-01-21T12:17:29.916Z,14.77
2023-01-21T12:20:19.749Z,14.43
2023-01-21T12:23:01.181Z,14.13
2023-01-21T12:25:40.893Z,13.10
2023-01-21T12:28:27.522Z,12.83
2023-01-21T12:31:07.425Z,13.70
2023-01-21T12:33:44.520Z,13.03
2023-01-21T12:36:17.826Z,13.47
2023-01-21T12:38:49.732Z,12.73
2023-01-21T12:41:23.007Z,13.50
2023-01-21T12:43:56.283Z,14.47
2023-01-21T12:46:28.551Z,14.17
2023-01-21T12:49:02.561Z,13.80
2023-01-21T12:51:37.909Z,13.00
2023-01-21T12:54:11.262Z,13.60
2023-01-21T12:56:41.933Z,12.67
2023-01-21T12:59:17.084Z,14.37
2023-01-21T13:01:52.595Z,12.63
2023-01-21T13:04:43.184Z,12.77
2023-01-21T13:07:24.622Z,11.63
2023-01-21T13:10:00.263Z,11.53
2023-01-21T13:12:31.578Z,11.60
2023-01-21T13:15:04.448Z,11.80
2023-01-21T13:17:35.111Z,12.43
2023-01-21T13:20:14.130Z,11.83
2023-01-21T13:22:49.027Z,13.27
2023-01-21T13:25:32.562Z,12.20
2023-01-21T13:28:11.784Z,12.20
2023-01-21T13:30:46.638Z,12.20
2023-01-21T13:33:36.554Z,11.97
2023-01-21T13:36:35.461Z,12.67
2023-01-21T13:39:14.478Z,12.03
2023-01-21T13:41:55.071Z,11.17
2023-01-21T13:44:52.487Z,12.13
2023-01-21T13:51:26.374Z,11.80
2023-01-21T13:54:16.348Z,12.27
2023-01-21T13:56:56.899Z,11.50
2023-01-21T13:59:30.155Z,11.77
2023-01-21T14:02:02.932Z,12.90
2023-01-21T14:04:36.328Z,12.40
2023-01-21T14:07:10.971Z,12.30
2023-01-21T14:09:44.126Z,11.30
2023-01-21T14:12:18.861Z,11.63
2023-01-21T14:15:18.759Z,11.17
2023-01-21T14:18:20.899Z,11.33
2023-01-21T14:21:10.002Z,12.77
2023-01-21T14:23:59.880Z,12.27
2023-01-21T14:27:09.242Z,13.10
2023-01-21T14:29:45.133Z,11.07
2023-01-21T14:32:17.760Z,13.07
2023-01-21T14:34:54.390Z,12.37
2023-01-21T14:37:29.861Z,12.90
2023-01-21T14:40:11.090Z,13.10
2023-01-21T14:42:46.412Z,13.73
2023-01-21T14:45:16.694Z,12.03
2023-01-21T14:47:53.445Z,12.80
2023-01-21T14:50:47.851Z,12.30
2023-01-21T14:53:21.681Z,12.70
2023-01-21T14:56:08.432Z,13.87
2023-01-21T14:58:38.299Z,13.30
2023-01-21T15:01:08.006Z,14.43
2023-01-21T15:03:49.267Z,13.27
2023-01-21T15:06:22.246Z,13.73
2023-01-21T15:08:52.499Z,15.17
2023-01-21T15:11:23.122Z,13.50
2023-01-21T15:14:03.548Z,13.07
2023-01-21T15:16:36.805Z,14.70
2023-01-21T15:19:26.326Z,14.37
2023-01-21T15:22:19.559Z,13.77
2023-01-21T15:25:27.238Z,14.23
2023-01-21T15:28:40.200Z,13.00
2023-01-21T15:31:12.767Z,13.60
2023-01-21T15:33:46.906Z,14.70
2023-01-21T15:36:22.541Z,13.80
2023-01-21T15:38:51.936Z,15.20
2023-01-21T15:41:29.477Z,16.77
2023-01-21T15:44:09.386Z,15.23
2023-01-21T15:46:45.920Z,15.70
2023-01-21T15:49:27.341Z,15.80
2023-01-21T15:52:07.634Z,14.20
2023-01-21T15:54:44.603Z,12.63
2023-01-21T15:57:40.176Z,13.40
2023-01-21T16:00:33.784Z,13.63
2023-01-21T16:03:13.966Z,12.80
2023-01-21T16:05:50.563Z,12.93
2023-01-21T16:08:27.365Z,12.97
2023-01-21T16:11:17.354Z,13.17
2023-01-21T16:13:54.777Z,12.67
2023-01-21T16:16:36.088Z,13.17
2023-01-21T16:19:08.502Z,14.37
2023-01-21T16:21:40.119Z,11.40
2023-01-21T16:24:13.069Z,12.90
2023-01-21T16:26:41.254Z,12.83
2023-01-21T16:29:13.210Z,11.83
2023-01-21T16:31:48.676Z,11.67
2023-01-21T16:34:25.434Z,13.23
2023-01-21T16:36:53.498Z,12.87
2023-01-21T16:39:21.594Z,12.60
2023-01-21T16:42:01.794Z,11.37
2023-01-21T16:44:31.330Z,12.23
2023-01-21T16:46:59.734Z,12.30
2023-01-21T16:49:29.357Z,13.13
2023-01-21T16:52:01.171Z,11.60
2023-01-21T16:54:31.228Z,12.10
2023-01-21T16:57:01.313Z,11.63
2023-01-21T16:59:31.669Z,11.97
2023-01-21T17:02:00.723Z,10.73
2023-01-21T17:04:31.471Z,11.63
2023-01-21T17:07:00.285Z,11.10
2023-01-21T17:09:32.280Z,10.57
2023-01-21T17:12:05.914Z,11.07
2023-01-21T17:14:35.586Z,11.87
2023-01-21T17:17:07.160Z,10.77
2023-01-21T17:19:38.638Z,11.40
2023-01-21T17:22:15.512Z,11.97
2023-01-21T17:24:56.765Z,12.57
2023-01-21T17:27:26.396Z,12.43
2023-01-21T17:29:54.561Z,11.90
2023-01-21T17:32:27.362Z,12.50
2023-01-21T17:35:12.281Z,11.63
2023-01-21T17:37:45.281Z,13.10
2023-01-21T17:40:28.593Z,13.80
2023-01-21T17:42:57.519Z,12.83
2023-01-21T17:45:32.315Z,14.77
2023-01-21T17:48:12.507Z,13.33
2023-01-21T17:50:47.722Z,14.27
2023-01-21T17:53:22.729Z,14.03
2023-01-21T17:55:59.476Z,14.63
2023-01-21T17:58:46.876Z,13.47
2023-01-21T18:01:15.885Z,13.17
2023-01-21T18:03:44.199Z,14.43
2023-01-21T18:06:21.524Z,15.73
2023-01-21T18:08:51.024Z,14.73
2023-01-21T18:11:19.671Z,14.73
2023-01-21T18:13:48.036Z,13.17
2023-01-21T18:16:16.492Z,13.90
2023-01-21T18:18:44.940Z,14.17
2023-01-21T18:21:22.362Z,15.30
2023-01-21T18:23:51.113Z,13.70
2023-01-21T18:26:27.407Z,13.30
2023-01-21T18:28:55.539Z,14.20
2023-01-21T18:31:23.894Z,15.10
2023-01-21T18:33:52.299Z,14.40
2023-01-21T18:36:21.859Z,15.77
2023-01-21T18:38:49.937Z,16.70
2023-01-21T18:41:18.015Z,15.07
2023-01-21T18:43:46.135Z,16.07
2023-01-21T18:46:16.276Z,14.07
2023-01-21T18:48:44.471Z,16.37
2023-01-21T18:51:14.122Z,14.70
2023-01-21T18:53:43.554Z,15.17
2023-01-21T18:56:14.778Z,14.40
2023-01-21T18:58:43.113Z,14.33
2023-01-21T19:01:22.709Z,15.30
2023-01-21T19:03:54.742Z,16.07
2023-01-21T19:06:24.635Z,16.60
2023-01-21T19:08:55.104Z,16.90
2023-01-21T19:11:23.377Z,16.43
2023-01-21T19:13:51.428Z,17.23
2023-01-21T19:16:21.893Z,17.80
2023-01-21T19:18:50.160Z,16.93
2023-01-21T19:21:18.294Z,17.43
2023-01-21T19:23:46.589Z,17.73
2023-01-21T19:26:16.876Z,18.60
2023-01-21T19:28:44.972Z,14.87
2023-01-21T19:31:13.327Z,16.20
2023-01-21T19:33:42.877Z,20.37
2023-01-21T19:36:16.086Z,18.43
2023-01-21T19:38:47.548Z,19.47
2023-01-21T19:41:17.067Z,17.83
2023-01-21T19:43:46.168Z,17.17
2023-01-21T19:46:14.454Z,18.30
2023-01-21T19:48:42.716Z,17.00
2023-01-21T19:51:10.892Z,17.27
2023-01-21T19:53:39.003Z,15.93
2023-01-21T19:56:07.947Z,15.83
2023-01-21T19:58:37.494Z,18.00
2023-01-21T20:01:06.015Z,17.70
2023-01-21T20:03:34.162Z,17.57
2023-01-21T20:06:04.090Z,16.97
2023-01-21T20:08:33.732Z,15.90
2023-01-21T20:11:01.848Z,16.97
2023-01-21T20:13:32.217Z,18.60
2023-01-21T20:16:04.447Z,16.80
2023-01-21T20:18:33.551Z,17.83
2023-01-21T20:21:01.718Z,17.97
2023-01-21T20:23:32.590Z,17.07
2023-01-21T20:26:01.235Z,17.97
2023-01-21T20:28:37.130Z,18.50
2023-01-21T20:31:08.166Z,18.67
2023-01-21T20:33:36.907Z,18.73
2023-01-21T20:36:07.409Z,18.13
2023-01-21T20:38:37.129Z,18.80
2023-01-21T20:41:06.735Z,17.20
2023-01-21T20:43:34.862Z,18.30
2023-01-21T20:46:06.541Z,17.90
2023-01-21T20:48:40.011Z,16.70
2023-01-21T20:51:09.034Z,17.83
2023-01-21T20:53:37.521Z,18.57
2023-01-21T20:56:17.635Z,19.57
2023-01-21T20:58:47.812Z,18.73
2023-01-21T21:01:17.252Z,17.30
2023-01-21T21:03:46.795Z,18.87
2023-01-21T21:06:15.989Z,17.83
2023-01-21T21:08:44.406Z,16.83
2023-01-21T21:11:14.647Z,16.87
2023-01-21T21:13:42.793Z,17.77
2023-01-21T21:16:22.232Z,16.50
2023-01-21T21:18:52.139Z,18.37
2023-01-21T21:21:23.570Z,17.97
2023-01-21T21:23:52.475Z,18.17
2023-01-21T21:26:23.041Z,18.80
2023-01-21T21:28:54.656Z,18.27
2023-01-21T21:31:23.507Z,17.73
2023-01-21T21:33:53.473Z,19.37
2023-01-21T21:36:24.631Z,18.27
2023-01-21T21:38:55.621Z,18.47
2023-01-21T21:41:43.136Z,18.23
2023-01-21T21:44:12.058Z,18.10
2023-01-21T21:46:58.410Z,19.33
2023-01-21T21:49:29.074Z,18.03
2023-01-21T21:51:59.807Z,17.63
2023-01-21T21:54:27.932Z,15.17
2023-01-21T21:56:56.226Z,19.13
2023-01-21T21:59:24.363Z,17.27
2023-01-21T22:01:52.421Z,18.40
2023-01-21T22:04:21.328Z,18.07
2023-01-21T22:06:50.765Z,16.63
2023-01-21T22:09:18.849Z,16.70
2023-01-21T22:11:47.042Z,17.37
2023-01-21T22:14:15.199Z,16.80
2023-01-21T22:16:43.598Z,16.90
2023-01-21T22:19:12.911Z,16.70
2023-01-21T22:21:41.039Z,16.70
2023-01-21T22:24:11.073Z,16.67
2023-01-21T22:26:39.582Z,17.97
2023-01-21T22:29:07.897Z,17.63
2023-01-21T22:31:36.117Z,17.13
2023-01-21T22:34:05.204Z,17.73
2023-01-21T22:36:33.572Z,16.90
2023-01-21T22:39:02.212Z,16.33
2023-01-21T22:41:32.421Z,16.20
2023-01-21T22:44:00.519Z,16.57
2023-01-21T22:46:31.368Z,16.30
2023-01-21T22:48:59.518Z,15.53
2023-01-21T22:51:27.990Z,17.10
2023-01-21T22:53:56.136Z,16.07
2023-01-21T22:56:44.839Z,15.73
2023-01-21T22:59:15.498Z,15.13
2023-01-21T23:01:43.643Z,15.07
2023-01-21T23:04:12.033Z,14.60
2023-01-21T23:06:40.270Z,14.60
2023-01-21T23:09:11.226Z,14.77
2023-01-21T23:11:41.540Z,16.03
2023-01-21T23:14:10.628Z,16.33
2023-01-21T23:16:40.453Z,15.47
2023-01-21T23:19:08.539Z,15.73
2023-01-21T23:21:37.679Z,15.17
2023-01-21T23:24:06.444Z,14.10
2023-01-21T23:26:35.410Z,15.23
2023-01-21T23:29:03.470Z,15.73
2023-01-21T23:31:31.637Z,15.83
2023-01-21T23:34:01.126Z,15.43
2023-01-21T23:36:29.348Z,16.37
2023-01-21T23:38:57.462Z,15.77
2023-01-21T23:41:25.514Z,15.33
2023-01-21T23:43:53.652Z,15.70
2023-01-21T23:46:21.702Z,15.60
2023-01-21T23:48:49.939Z,14.57
2023-01-21T23:51:19.860Z,16.63
2023-01-21T23:53:49.046Z,16.80
2023-01-21T23:56:20.958Z,16.00
2023-01-21T23:58:49.424Z,15.27
